sensor_id;sensor_type;location;lat;lon;timestamp;temperature;humidity
40023;DHT22;25713;-35.352;149.036;2022-11-20T00:01:44;15.00;92.40
40023;DHT22;25713;-35.352;149.036;2022-11-20T00:04:14;14.90;92.50
40023;DHT22;25713;-35.352;149.036;2022-11-20T00:06:43;14.90;93.10
40023;DHT22;25713;-35.352;149.036;2022-11-20T00:09:13;14.90;93.30
40023;DHT22;25713;-35.352;149.036;2022-11-20T00:11:44;14.80;94.20
40023;DHT22;25713;-35.352;149.036;2022-11-20T00:14:14;14.80;94.70
40023;DHT22;25713;-35.352;149.036;2022-11-20T00:16:43;14.80;95.00
40023;DHT22;25713;-35.352;149.036;2022-11-20T00:19:13;14.80;95.80
40023;DHT22;25713;-35.352;149.036;2022-11-20T00:21:42;14.90;95.40
40023;DHT22;25713;-35.352;149.036;2022-11-20T00:24:12;14.90;95.20
40023;DHT22;25713;-35.352;149.036;2022-11-20T00:26:44;15.00;95.60
40023;DHT22;25713;-35.352;149.036;2022-11-20T00:29:13;15.00;95.40
40023;DHT22;25713;-35.352;149.036;2022-11-20T00:31:43;15.10;94.60
40023;DHT22;25713;-35.352;149.036;2022-11-20T00:34:12;15.10;95.10
40023;DHT22;25713;-35.352;149.036;2022-11-20T00:36:41;15.10;94.80
40023;DHT22;25713;-35.352;149.036;2022-11-20T00:39:11;15.10;94.00
40023;DHT22;25713;-35.352;149.036;2022-11-20T00:41:41;15.10;95.00
40023;DHT22;25713;-35.352;149.036;2022-11-20T00:44:12;15.10;94.20
40023;DHT22;25713;-35.352;149.036;2022-11-20T00:46:42;15.10;94.00
40023;DHT22;25713;-35.352;149.036;2022-11-20T00:49:11;15.20;94.30
40023;DHT22;25713;-35.352;149.036;2022-11-20T00:51:41;15.20;94.90
40023;DHT22;25713;-35.352;149.036;2022-11-20T00:54:10;15.20;93.40
40023;DHT22;25713;-35.352;149.036;2022-11-20T00:56:40;15.10;93.50
40023;DHT22;25713;-35.352;149.036;2022-11-20T00:59:12;15.10;93.10
40023;DHT22;25713;-35.352;149.036;2022-11-20T01:01:41;15.00;92.50
40023;DHT22;25713;-35.352;149.036;2022-11-20T01:04:11;15.10;93.40
40023;DHT22;25713;-35.352;149.036;2022-11-20T01:07:02;15.20;93.50
40023;DHT22;25713;-35.352;149.036;2022-11-20T01:09:31;15.20;93.20
40023;DHT22;25713;-35.352;149.036;2022-11-20T01:12:00;15.20;93.30
40023;DHT22;25713;-35.352;149.036;2022-11-20T01:14:33;15.20;92.50
40023;DHT22;25713;-35.352;149.036;2022-11-20T01:17:03;15.30;91.30
40023;DHT22;25713;-35.352;149.036;2022-11-20T01:19:33;15.20;92.10
40023;DHT22;25713;-35.352;149.036;2022-11-20T01:22:02;15.20;91.90
40023;DHT22;25713;-35.352;149.036;2022-11-20T01:24:32;15.20;91.50
40023;DHT22;25713;-35.352;149.036;2022-11-20T01:27:01;15.20;91.00
40023;DHT22;25713;-35.352;149.036;2022-11-20T01:29:34;15.20;91.50
40023;DHT22;25713;-35.352;149.036;2022-11-20T01:32:02;15.20;91.10
40023;DHT22;25713;-35.352;149.036;2022-11-20T01:34:31;15.20;92.00
40023;DHT22;25713;-35.352;149.036;2022-11-20T01:37:01;15.30;92.50
40023;DHT22;25713;-35.352;149.036;2022-11-20T01:39:30;15.30;92.00
40023;DHT22;25713;-35.352;149.036;2022-11-20T01:42:00;15.40;91.90
40023;DHT22;25713;-35.352;149.036;2022-11-20T01:44:54;15.30;91.50
40023;DHT22;25713;-35.352;149.036;2022-11-20T01:47:31;15.20;92.40
40023;DHT22;25713;-35.352;149.036;2022-11-20T01:50:05;15.10;92.80
40023;DHT22;25713;-35.352;149.036;2022-11-20T01:52:39;15.20;92.60
40023;DHT22;25713;-35.352;149.036;2022-11-20T01:55:13;15.30;93.30
40023;DHT22;25713;-35.352;149.036;2022-11-20T01:57:45;15.40;93.00
40023;DHT22;25713;-35.352;149.036;2022-11-20T02:00:19;15.40;91.60
40023;DHT22;25713;-35.352;149.036;2022-11-20T02:02:52;15.40;91.00
40023;DHT22;25713;-35.352;149.036;2022-11-20T02:05:28;15.60;90.20
40023;DHT22;25713;-35.352;149.036;2022-11-20T02:08:01;15.60;90.50
40023;DHT22;25713;-35.352;149.036;2022-11-20T02:10:32;15.70;89.60
40023;DHT22;25713;-35.352;149.036;2022-11-20T02:13:01;15.70;89.20
40023;DHT22;25713;-35.352;149.036;2022-11-20T02:15:35;15.70;87.70
40023;DHT22;25713;-35.352;149.036;2022-11-20T02:18:06;15.80;89.50
40023;DHT22;25713;-35.352;149.036;2022-11-20T02:20:37;15.80;90.00
40023;DHT22;25713;-35.352;149.036;2022-11-20T02:23:12;15.80;88.30
40023;DHT22;25713;-35.352;149.036;2022-11-20T02:25:45;15.80;89.90
40023;DHT22;25713;-35.352;149.036;2022-11-20T02:28:15;15.90;89.90
40023;DHT22;25713;-35.352;149.036;2022-11-20T02:30:45;15.90;88.80
40023;DHT22;25713;-35.352;149.036;2022-11-20T02:33:15;15.80;85.60
40023;DHT22;25713;-35.352;149.036;2022-11-20T02:35:46;15.80;87.10
40023;DHT22;25713;-35.352;149.036;2022-11-20T02:38:15;15.80;87.00
40023;DHT22;25713;-35.352;149.036;2022-11-20T02:40:47;15.90;85.10
40023;DHT22;25713;-35.352;149.036;2022-11-20T02:43:17;15.80;86.50
40023;DHT22;25713;-35.352;149.036;2022-11-20T02:45:46;15.90;84.30
40023;DHT22;25713;-35.352;149.036;2022-11-20T02:48:16;15.90;85.20
40023;DHT22;25713;-35.352;149.036;2022-11-20T02:50:46;15.90;84.50
40023;DHT22;25713;-35.352;149.036;2022-11-20T02:53:15;15.90;83.70
40023;DHT22;25713;-35.352;149.036;2022-11-20T02:55:47;15.80;83.30
40023;DHT22;25713;-35.352;149.036;2022-11-20T02:58:17;16.00;79.90
40023;DHT22;25713;-35.352;149.036;2022-11-20T03:00:46;15.90;80.90
40023;DHT22;25713;-35.352;149.036;2022-11-20T03:03:15;15.90;76.80
40023;DHT22;25713;-35.352;149.036;2022-11-20T03:05:45;15.90;82.80
40023;DHT22;25713;-35.352;149.036;2022-11-20T03:08:14;15.90;80.80
40023;DHT22;25713;-35.352;149.036;2022-11-20T03:10:46;16.00;76.20
40023;DHT22;25713;-35.352;149.036;2022-11-20T03:13:15;16.00;79.10
40023;DHT22;25713;-35.352;149.036;2022-11-20T03:15:45;16.10;75.00
40023;DHT22;25713;-35.352;149.036;2022-11-20T03:18:15;16.20;78.20
40023;DHT22;25713;-35.352;149.036;2022-11-20T03:20:45;16.10;74.10
40023;DHT22;25713;-35.352;149.036;2022-11-20T03:23:15;16.10;72.40
40023;DHT22;25713;-35.352;149.036;2022-11-20T03:25:46;16.00;77.60
40023;DHT22;25713;-35.352;149.036;2022-11-20T03:28:15;16.00;78.40
40023;DHT22;25713;-35.352;149.036;2022-11-20T03:30:45;16.10;78.80
40023;DHT22;25713;-35.352;149.036;2022-11-20T03:33:15;16.10;76.10
40023;DHT22;25713;-35.352;149.036;2022-11-20T03:35:44;16.20;74.80
40023;DHT22;25713;-35.352;149.036;2022-11-20T03:38:14;16.30;72.80
40023;DHT22;25713;-35.352;149.036;2022-11-20T03:40:43;16.30;77.00
40023;DHT22;25713;-35.352;149.036;2022-11-20T03:43:14;16.30;76.10
40023;DHT22;25713;-35.352;149.036;2022-11-20T03:45:44;16.20;75.60
40023;DHT22;25713;-35.352;149.036;2022-11-20T03:48:13;16.20;73.50
40023;DHT22;25713;-35.352;149.036;2022-11-20T03:50:43;16.20;76.50
40023;DHT22;25713;-35.352;149.036;2022-11-20T03:53:12;16.20;75.20
40023;DHT22;25713;-35.352;149.036;2022-11-20T03:55:42;16.20;75.20
40023;DHT22;25713;-35.352;149.036;2022-11-20T03:58:15;16.10;74.60
40023;DHT22;25713;-35.352;149.036;2022-11-20T04:00:45;16.10;76.80
40023;DHT22;25713;-35.352;149.036;2022-11-20T04:03:15;16.10;76.50
40023;DHT22;25713;-35.352;149.036;2022-11-20T04:05:44;16.00;77.10
40023;DHT22;25713;-35.352;149.036;2022-11-20T04:08:14;16.10;77.00
40023;DHT22;25713;-35.352;149.036;2022-11-20T04:10:43;16.00;73.40
40023;DHT22;25713;-35.352;149.036;2022-11-20T04:13:15;16.00;75.50
40023;DHT22;25713;-35.352;149.036;2022-11-20T04:15:44;15.90;76.60
40023;DHT22;25713;-35.352;149.036;2022-11-20T04:18:14;16.00;75.10
40023;DHT22;25713;-35.352;149.036;2022-11-20T04:20:43;16.00;76.60
40023;DHT22;25713;-35.352;149.036;2022-11-20T04:23:13;16.10;76.00
40023;DHT22;25713;-35.352;149.036;2022-11-20T04:25:42;16.10;75.30
40023;DHT22;25713;-35.352;149.036;2022-11-20T04:28:12;16.00;75.30
40023;DHT22;25713;-35.352;149.036;2022-11-20T04:30:43;16.10;75.80
40023;DHT22;25713;-35.352;149.036;2022-11-20T04:33:13;16.10;76.30
40023;DHT22;25713;-35.352;149.036;2022-11-20T04:35:43;16.00;76.90
40023;DHT22;25713;-35.352;149.036;2022-11-20T04:38:16;16.10;75.50
40023;DHT22;25713;-35.352;149.036;2022-11-20T04:40:45;16.20;78.50
40023;DHT22;25713;-35.352;149.036;2022-11-20T04:43:15;16.20;76.80
40023;DHT22;25713;-35.352;149.036;2022-11-20T04:45:51;16.00;76.70
40023;DHT22;25713;-35.352;149.036;2022-11-20T04:48:21;16.00;77.60
40023;DHT22;25713;-35.352;149.036;2022-11-20T04:50:51;16.00;77.50
40023;DHT22;25713;-35.352;149.036;2022-11-20T04:53:20;16.00;76.90
40023;DHT22;25713;-35.352;149.036;2022-11-20T04:55:50;16.00;77.90
40023;DHT22;25713;-35.352;149.036;2022-11-20T04:58:20;16.00;79.60
40023;DHT22;25713;-35.352;149.036;2022-11-20T05:00:51;16.00;77.80
40023;DHT22;25713;-35.352;149.036;2022-11-20T05:03:21;16.10;76.00
40023;DHT22;25713;-35.352;149.036;2022-11-20T05:05:50;16.00;79.10
40023;DHT22;25713;-35.352;149.036;2022-11-20T05:08:20;16.00;78.90
40023;DHT22;25713;-35.352;149.036;2022-11-20T05:10:49;15.90;80.50
40023;DHT22;25713;-35.352;149.036;2022-11-20T05:13:19;16.00;79.00
40023;DHT22;25713;-35.352;149.036;2022-11-20T05:15:50;16.00;79.10
40023;DHT22;25713;-35.352;149.036;2022-11-20T05:18:20;16.00;80.90
40023;DHT22;25713;-35.352;149.036;2022-11-20T05:20:55;16.00;77.70
40023;DHT22;25713;-35.352;149.036;2022-11-20T05:23:26;16.10;77.50
40023;DHT22;25713;-35.352;149.036;2022-11-20T05:25:55;16.10;73.60
40023;DHT22;25713;-35.352;149.036;2022-11-20T05:28:26;16.10;79.10
40023;DHT22;25713;-35.352;149.036;2022-11-20T05:31:05;16.10;73.80
40023;DHT22;25713;-35.352;149.036;2022-11-20T05:33:35;16.10;76.60
40023;DHT22;25713;-35.352;149.036;2022-11-20T05:36:05;16.10;74.20
40023;DHT22;25713;-35.352;149.036;2022-11-20T05:38:35;16.10;77.10
40023;DHT22;25713;-35.352;149.036;2022-11-20T05:41:06;16.10;75.30
40023;DHT22;25713;-35.352;149.036;2022-11-20T05:43:36;16.10;74.20
40023;DHT22;25713;-35.352;149.036;2022-11-20T05:46:10;16.10;76.50
40023;DHT22;25713;-35.352;149.036;2022-11-20T05:48:41;16.00;76.60
40023;DHT22;25713;-35.352;149.036;2022-11-20T05:51:13;16.00;73.00
40023;DHT22;25713;-35.352;149.036;2022-11-20T05:53:43;16.00;73.10
40023;DHT22;25713;-35.352;149.036;2022-11-20T05:56:14;16.00;72.10
40023;DHT22;25713;-35.352;149.036;2022-11-20T05:58:44;16.00;73.20
40023;DHT22;25713;-35.352;149.036;2022-11-20T06:01:17;16.10;74.90
40023;DHT22;25713;-35.352;149.036;2022-11-20T06:03:47;16.00;73.90
40023;DHT22;25713;-35.352;149.036;2022-11-20T06:06:17;16.00;73.60
40023;DHT22;25713;-35.352;149.036;2022-11-20T06:08:47;16.00;74.10
40023;DHT22;25713;-35.352;149.036;2022-11-20T06:11:17;16.00;75.30
40023;DHT22;25713;-35.352;149.036;2022-11-20T06:13:47;15.90;71.30
40023;DHT22;25713;-35.352;149.036;2022-11-20T06:16:20;15.90;74.30
40023;DHT22;25713;-35.352;149.036;2022-11-20T06:18:49;15.90;74.80
40023;DHT22;25713;-35.352;149.036;2022-11-20T06:21:20;15.90;73.70
40023;DHT22;25713;-35.352;149.036;2022-11-20T06:23:51;15.90;71.10
40023;DHT22;25713;-35.352;149.036;2022-11-20T06:26:22;15.90;73.10
40023;DHT22;25713;-35.352;149.036;2022-11-20T06:28:53;15.90;71.50
40023;DHT22;25713;-35.352;149.036;2022-11-20T06:31:26;15.90;73.10
40023;DHT22;25713;-35.352;149.036;2022-11-20T06:33:56;15.90;73.40
40023;DHT22;25713;-35.352;149.036;2022-11-20T06:36:26;15.90;72.40
40023;DHT22;25713;-35.352;149.036;2022-11-20T06:38:56;15.90;74.00
40023;DHT22;25713;-35.352;149.036;2022-11-20T06:41:25;15.90;73.80
40023;DHT22;25713;-35.352;149.036;2022-11-20T06:43:55;15.90;74.10
40023;DHT22;25713;-35.352;149.036;2022-11-20T06:46:26;15.90;73.10
40023;DHT22;25713;-35.352;149.036;2022-11-20T06:48:56;15.80;73.20
40023;DHT22;25713;-35.352;149.036;2022-11-20T06:51:25;15.80;73.30
40023;DHT22;25713;-35.352;149.036;2022-11-20T06:53:55;15.70;72.70
40023;DHT22;25713;-35.352;149.036;2022-11-20T06:56:25;15.70;71.30
40023;DHT22;25713;-35.352;149.036;2022-11-20T06:58:54;15.70;72.80
40023;DHT22;25713;-35.352;149.036;2022-11-20T07:01:26;15.70;74.50
40023;DHT22;25713;-35.352;149.036;2022-11-20T07:03:55;15.70;75.50
40023;DHT22;25713;-35.352;149.036;2022-11-20T07:06:25;15.70;75.30
40023;DHT22;25713;-35.352;149.036;2022-11-20T07:09:00;15.70;75.00
40023;DHT22;25713;-35.352;149.036;2022-11-20T07:11:30;15.70;74.40
40023;DHT22;25713;-35.352;149.036;2022-11-20T07:13:59;15.60;72.80
40023;DHT22;25713;-35.352;149.036;2022-11-20T07:16:31;15.60;74.10
40023;DHT22;25713;-35.352;149.036;2022-11-20T07:19:00;15.50;75.00
40023;DHT22;25713;-35.352;149.036;2022-11-20T07:21:30;15.50;74.90
40023;DHT22;25713;-35.352;149.036;2022-11-20T07:24:00;15.50;73.90
40023;DHT22;25713;-35.352;149.036;2022-11-20T07:26:29;15.40;73.90
40023;DHT22;25713;-35.352;149.036;2022-11-20T07:28:59;15.40;74.60
40023;DHT22;25713;-35.352;149.036;2022-11-20T07:31:30;15.40;74.70
40023;DHT22;25713;-35.352;149.036;2022-11-20T07:34:00;15.40;73.90
40023;DHT22;25713;-35.352;149.036;2022-11-20T07:36:29;15.40;73.50
40023;DHT22;25713;-35.352;149.036;2022-11-20T07:38:59;15.40;74.50
40023;DHT22;25713;-35.352;149.036;2022-11-20T07:41:28;15.40;75.40
40023;DHT22;25713;-35.352;149.036;2022-11-20T07:43:58;15.30;75.70
40023;DHT22;25713;-35.352;149.036;2022-11-20T07:46:29;15.30;74.60
40023;DHT22;25713;-35.352;149.036;2022-11-20T07:48:59;15.30;76.70
40023;DHT22;25713;-35.352;149.036;2022-11-20T07:51:29;15.40;76.10
40023;DHT22;25713;-35.352;149.036;2022-11-20T07:53:58;15.40;76.90
40023;DHT22;25713;-35.352;149.036;2022-11-20T07:56:28;15.40;76.40
40023;DHT22;25713;-35.352;149.036;2022-11-20T07:58:57;15.30;77.40
40023;DHT22;25713;-35.352;149.036;2022-11-20T08:01:26;15.30;76.10
40023;DHT22;25713;-35.352;149.036;2022-11-20T08:03:58;15.30;77.60
40023;DHT22;25713;-35.352;149.036;2022-11-20T08:06:27;15.30;75.70
40023;DHT22;25713;-35.352;149.036;2022-11-20T08:08:57;15.20;77.00
40023;DHT22;25713;-35.352;149.036;2022-11-20T08:11:29;15.20;77.80
40023;DHT22;25713;-35.352;149.036;2022-11-20T08:13:58;15.20;78.20
40023;DHT22;25713;-35.352;149.036;2022-11-20T08:16:28;15.10;79.70
40023;DHT22;25713;-35.352;149.036;2022-11-20T08:18:59;15.00;80.50
40023;DHT22;25713;-35.352;149.036;2022-11-20T08:21:30;15.00;79.80
40023;DHT22;25713;-35.352;149.036;2022-11-20T08:23:59;15.00;81.40
40023;DHT22;25713;-35.352;149.036;2022-11-20T08:26:29;15.10;82.00
40023;DHT22;25713;-35.352;149.036;2022-11-20T08:28:58;15.00;81.50
40023;DHT22;25713;-35.352;149.036;2022-11-20T08:31:28;15.00;82.90
40023;DHT22;25713;-35.352;149.036;2022-11-20T08:34:00;14.90;83.10
40023;DHT22;25713;-35.352;149.036;2022-11-20T08:36:32;14.80;83.70
40023;DHT22;25713;-35.352;149.036;2022-11-20T08:39:02;14.90;84.50
40023;DHT22;25713;-35.352;149.036;2022-11-20T08:41:32;14.90;85.00
40023;DHT22;25713;-35.352;149.036;2022-11-20T08:44:02;14.90;84.80
40023;DHT22;25713;-35.352;149.036;2022-11-20T08:46:33;14.90;84.90
40023;DHT22;25713;-35.352;149.036;2022-11-20T08:49:06;15.00;84.00
40023;DHT22;25713;-35.352;149.036;2022-11-20T08:51:36;15.00;85.00
40023;DHT22;25713;-35.352;149.036;2022-11-20T08:54:06;15.00;86.00
40023;DHT22;25713;-35.352;149.036;2022-11-20T08:56:36;15.10;86.10
40023;DHT22;25713;-35.352;149.036;2022-11-20T08:59:05;15.10;86.20
40023;DHT22;25713;-35.352;149.036;2022-11-20T09:01:35;15.20;85.40
40023;DHT22;25713;-35.352;149.036;2022-11-20T09:04:07;15.20;85.70
40023;DHT22;25713;-35.352;149.036;2022-11-20T09:06:36;15.10;85.00
40023;DHT22;25713;-35.352;149.036;2022-11-20T09:09:06;15.10;85.10
40023;DHT22;25713;-35.352;149.036;2022-11-20T09:11:36;15.00;85.50
40023;DHT22;25713;-35.352;149.036;2022-11-20T09:14:05;15.10;85.60
40023;DHT22;25713;-35.352;149.036;2022-11-20T09:16:35;15.00;83.60
40023;DHT22;25713;-35.352;149.036;2022-11-20T09:19:08;15.00;84.50
40023;DHT22;25713;-35.352;149.036;2022-11-20T09:21:37;15.00;85.60
40023;DHT22;25713;-35.352;149.036;2022-11-20T09:24:07;15.00;85.20
40023;DHT22;25713;-35.352;149.036;2022-11-20T09:26:37;14.90;83.20
40023;DHT22;25713;-35.352;149.036;2022-11-20T09:29:07;14.90;84.50
40023;DHT22;25713;-35.352;149.036;2022-11-20T09:31:36;14.90;85.10
40023;DHT22;25713;-35.352;149.036;2022-11-20T09:34:09;14.90;84.20
40023;DHT22;25713;-35.352;149.036;2022-11-20T09:36:40;14.90;84.20
40023;DHT22;25713;-35.352;149.036;2022-11-20T09:39:10;14.90;84.80
40023;DHT22;25713;-35.352;149.036;2022-11-20T09:41:59;14.80;83.50
40023;DHT22;25713;-35.352;149.036;2022-11-20T09:44:49;14.90;83.40
40023;DHT22;25713;-35.352;149.036;2022-11-20T09:47:26;14.80;82.80
40023;DHT22;25713;-35.352;149.036;2022-11-20T09:50:14;14.90;82.70
40023;DHT22;25713;-35.352;149.036;2022-11-20T09:52:54;14.90;82.80
40023;DHT22;25713;-35.352;149.036;2022-11-20T09:55:30;14.80;83.30
40023;DHT22;25713;-35.352;149.036;2022-11-20T09:58:00;14.80;83.80
40023;DHT22;25713;-35.352;149.036;2022-11-20T10:00:35;14.80;82.70
40023;DHT22;25713;-35.352;149.036;2022-11-20T10:03:13;14.70;81.80
40023;DHT22;25713;-35.352;149.036;2022-11-20T10:05:46;14.70;83.50
40023;DHT22;25713;-35.352;149.036;2022-11-20T10:08:19;14.70;83.80
40023;DHT22;25713;-35.352;149.036;2022-11-20T10:10:55;14.70;83.40
40023;DHT22;25713;-35.352;149.036;2022-11-20T10:13:35;14.70;82.60
40023;DHT22;25713;-35.352;149.036;2022-11-20T10:16:23;14.60;83.10
40023;DHT22;25713;-35.352;149.036;2022-11-20T10:19:07;14.60;83.70
40023;DHT22;25713;-35.352;149.036;2022-11-20T10:21:54;14.60;82.80
40023;DHT22;25713;-35.352;149.036;2022-11-20T10:24:50;14.70;83.20
40023;DHT22;25713;-35.352;149.036;2022-11-20T10:30:21;14.60;82.40
40023;DHT22;25713;-35.352;149.036;2022-11-20T10:32:52;14.60;82.40
40023;DHT22;25713;-35.352;149.036;2022-11-20T10:35:28;14.50;82.70
40023;DHT22;25713;-35.352;149.036;2022-11-20T10:38:07;14.60;82.70
40023;DHT22;25713;-35.352;149.036;2022-11-20T10:40:41;14.50;83.00
40023;DHT22;25713;-35.352;149.036;2022-11-20T10:43:16;14.50;81.70
40023;DHT22;25713;-35.352;149.036;2022-11-20T10:45:50;14.60;83.10
40023;DHT22;25713;-35.352;149.036;2022-11-20T10:48:23;14.50;82.10
40023;DHT22;25713;-35.352;149.036;2022-11-20T10:51:18;14.50;80.60
40023;DHT22;25713;-35.352;149.036;2022-11-20T10:54:00;14.40;79.50
40023;DHT22;25713;-35.352;149.036;2022-11-20T10:56:38;14.40;82.70
40023;DHT22;25713;-35.352;149.036;2022-11-20T11:02:21;14.40;81.80
40023;DHT22;25713;-35.352;149.036;2022-11-20T11:04:51;14.40;82.40
40023;DHT22;25713;-35.352;149.036;2022-11-20T11:07:24;14.40;81.80
40023;DHT22;25713;-35.352;149.036;2022-11-20T11:09:57;14.50;82.10
40023;DHT22;25713;-35.352;149.036;2022-11-20T11:12:28;14.50;81.90
40023;DHT22;25713;-35.352;149.036;2022-11-20T11:14:58;14.50;81.00
40023;DHT22;25713;-35.352;149.036;2022-11-20T11:17:29;14.50;80.80
40023;DHT22;25713;-35.352;149.036;2022-11-20T11:20:05;14.50;80.20
40023;DHT22;25713;-35.352;149.036;2022-11-20T11:22:44;14.50;81.50
40023;DHT22;25713;-35.352;149.036;2022-11-20T11:25:28;14.50;80.90
40023;DHT22;25713;-35.352;149.036;2022-11-20T11:27:59;14.50;80.70
40023;DHT22;25713;-35.352;149.036;2022-11-20T11:30:30;14.50;79.70
40023;DHT22;25713;-35.352;149.036;2022-11-20T11:33:11;14.40;81.90
40023;DHT22;25713;-35.352;149.036;2022-11-20T11:35:47;14.50;82.10
40023;DHT22;25713;-35.352;149.036;2022-11-20T11:38:19;14.40;81.50
40023;DHT22;25713;-35.352;149.036;2022-11-20T11:40:54;14.40;81.10
40023;DHT22;25713;-35.352;149.036;2022-11-20T11:43:25;14.50;81.00
40023;DHT22;25713;-35.352;149.036;2022-11-20T11:45:56;14.40;81.50
40023;DHT22;25713;-35.352;149.036;2022-11-20T11:48:26;14.50;80.60
40023;DHT22;25713;-35.352;149.036;2022-11-20T11:50:56;14.50;81.10
40023;DHT22;25713;-35.352;149.036;2022-11-20T11:53:27;14.40;81.30
40023;DHT22;25713;-35.352;149.036;2022-11-20T11:56:05;14.40;82.10
40023;DHT22;25713;-35.352;149.036;2022-11-20T11:58:43;14.30;85.40
40023;DHT22;25713;-35.352;149.036;2022-11-20T12:01:26;14.10;88.50
40023;DHT22;25713;-35.352;149.036;2022-11-20T12:04:04;14.10;89.60
40023;DHT22;25713;-35.352;149.036;2022-11-20T12:06:35;14.10;90.10
40023;DHT22;25713;-35.352;149.036;2022-11-20T12:09:08;14.10;89.70
40023;DHT22;25713;-35.352;149.036;2022-11-20T12:11:45;14.20;89.70
40023;DHT22;25713;-35.352;149.036;2022-11-20T12:14:19;14.20;90.10
40023;DHT22;25713;-35.352;149.036;2022-11-20T12:16:50;14.10;89.60
40023;DHT22;25713;-35.352;149.036;2022-11-20T12:19:20;14.20;90.70
40023;DHT22;25713;-35.352;149.036;2022-11-20T12:21:56;14.20;89.80
40023;DHT22;25713;-35.352;149.036;2022-11-20T12:24:42;14.30;89.40
40023;DHT22;25713;-35.352;149.036;2022-11-20T12:30:25;14.40;88.70
40023;DHT22;25713;-35.352;149.036;2022-11-20T12:33:14;14.40;88.70
40023;DHT22;25713;-35.352;149.036;2022-11-20T12:39:03;14.50;89.40
40023;DHT22;25713;-35.352;149.036;2022-11-20T12:42:05;14.40;89.30
40023;DHT22;25713;-35.352;149.036;2022-11-20T12:45:00;14.40;90.00
40023;DHT22;25713;-35.352;149.036;2022-11-20T12:47:36;14.40;90.00
40023;DHT22;25713;-35.352;149.036;2022-11-20T12:50:13;14.40;90.00
40023;DHT22;25713;-35.352;149.036;2022-11-20T12:52:49;14.40;89.50
40023;DHT22;25713;-35.352;149.036;2022-11-20T12:55:28;14.30;90.40
40023;DHT22;25713;-35.352;149.036;2022-11-20T12:58:03;14.20;90.00
40023;DHT22;25713;-35.352;149.036;2022-11-20T13:00:40;14.10;90.60
40023;DHT22;25713;-35.352;149.036;2022-11-20T13:03:37;14.10;90.50
40023;DHT22;25713;-35.352;149.036;2022-11-20T13:06:14;14.20;90.50
40023;DHT22;25713;-35.352;149.036;2022-11-20T13:08:48;14.00;90.30
40023;DHT22;25713;-35.352;149.036;2022-11-20T13:11:24;14.00;90.10
40023;DHT22;25713;-35.352;149.036;2022-11-20T13:14:16;14.00;89.60
40023;DHT22;25713;-35.352;149.036;2022-11-20T13:16:54;14.00;90.10
40023;DHT22;25713;-35.352;149.036;2022-11-20T13:19:27;14.00;90.30
40023;DHT22;25713;-35.352;149.036;2022-11-20T13:21:57;13.90;90.50
40023;DHT22;25713;-35.352;149.036;2022-11-20T13:24:27;14.00;90.60
40023;DHT22;25713;-35.352;149.036;2022-11-20T13:27:18;14.00;90.70
40023;DHT22;25713;-35.352;149.036;2022-11-20T13:30:00;14.00;90.50
40023;DHT22;25713;-35.352;149.036;2022-11-20T13:32:32;14.00;90.10
40023;DHT22;25713;-35.352;149.036;2022-11-20T13:35:03;14.00;90.00
40023;DHT22;25713;-35.352;149.036;2022-11-20T13:37:34;14.00;90.00
40023;DHT22;25713;-35.352;149.036;2022-11-20T13:40:19;13.90;89.30
40023;DHT22;25713;-35.352;149.036;2022-11-20T13:43:00;13.90;90.40
40023;DHT22;25713;-35.352;149.036;2022-11-20T13:45:32;14.00;90.20
40023;DHT22;25713;-35.352;149.036;2022-11-20T13:48:15;14.00;89.70
40023;DHT22;25713;-35.352;149.036;2022-11-20T13:50:55;13.90;88.20
40023;DHT22;25713;-35.352;149.036;2022-11-20T13:53:42;13.90;90.00
40023;DHT22;25713;-35.352;149.036;2022-11-20T13:56:23;13.90;88.80
40023;DHT22;25713;-35.352;149.036;2022-11-20T13:59:02;14.00;90.00
40023;DHT22;25713;-35.352;149.036;2022-11-20T14:01:34;13.90;90.10
40023;DHT22;25713;-35.352;149.036;2022-11-20T14:04:11;13.90;89.70
40023;DHT22;25713;-35.352;149.036;2022-11-20T14:06:44;13.90;90.00
40023;DHT22;25713;-35.352;149.036;2022-11-20T14:09:24;13.80;90.50
40023;DHT22;25713;-35.352;149.036;2022-11-20T14:11:54;13.70;90.20
40023;DHT22;25713;-35.352;149.036;2022-11-20T14:14:24;13.80;90.30
40023;DHT22;25713;-35.352;149.036;2022-11-20T14:17:04;13.90;90.30
40023;DHT22;25713;-35.352;149.036;2022-11-20T14:19:36;13.80;91.00
40023;DHT22;25713;-35.352;149.036;2022-11-20T14:22:16;13.70;91.30
40023;DHT22;25713;-35.352;149.036;2022-11-20T14:24:46;13.60;92.20
40023;DHT22;25713;-35.352;149.036;2022-11-20T14:27:17;13.60;93.00
40023;DHT22;25713;-35.352;149.036;2022-11-20T14:29:48;13.50;93.30
40023;DHT22;25713;-35.352;149.036;2022-11-20T14:32:21;13.30;94.50
40023;DHT22;25713;-35.352;149.036;2022-11-20T14:34:53;13.40;95.10
40023;DHT22;25713;-35.352;149.036;2022-11-20T14:37:24;13.60;94.40
40023;DHT22;25713;-35.352;149.036;2022-11-20T14:39:54;13.70;94.40
40023;DHT22;25713;-35.352;149.036;2022-11-20T14:42:26;13.80;94.50
40023;DHT22;25713;-35.352;149.036;2022-11-20T14:44:57;13.90;94.40
40023;DHT22;25713;-35.352;149.036;2022-11-20T14:47:27;14.00;94.00
40023;DHT22;25713;-35.352;149.036;2022-11-20T14:50:01;14.00;93.90
40023;DHT22;25713;-35.352;149.036;2022-11-20T15:53:50;13.80;96.10
40023;DHT22;25713;-35.352;149.036;2022-11-20T15:56:20;13.70;96.30
40023;DHT22;25713;-35.352;149.036;2022-11-20T15:58:50;13.80;96.50
40023;DHT22;25713;-35.352;149.036;2022-11-20T16:01:22;13.80;96.20
40023;DHT22;25713;-35.352;149.036;2022-11-20T16:03:52;13.80;96.30
40023;DHT22;25713;-35.352;149.036;2022-11-20T16:06:22;13.80;96.30
40023;DHT22;25713;-35.352;149.036;2022-11-20T16:08:54;13.90;96.10
40023;DHT22;25713;-35.352;149.036;2022-11-20T16:11:23;13.90;96.40
40023;DHT22;25713;-35.352;149.036;2022-11-20T16:13:53;13.90;96.30
40023;DHT22;25713;-35.352;149.036;2022-11-20T16:16:25;14.00;96.20
40023;DHT22;25713;-35.352;149.036;2022-11-20T16:18:55;14.00;95.80
40023;DHT22;25713;-35.352;149.036;2022-11-20T16:21:25;14.00;95.50
40023;DHT22;25713;-35.352;149.036;2022-11-20T16:23:58;14.00;95.50
40023;DHT22;25713;-35.352;149.036;2022-11-20T16:26:28;14.10;95.60
40023;DHT22;25713;-35.352;149.036;2022-11-20T16:29:00;13.90;96.40
40023;DHT22;25713;-35.352;149.036;2022-11-20T16:31:30;13.90;96.30
40023;DHT22;25713;-35.352;149.036;2022-11-20T16:34:01;13.90;96.60